sensor_id;sensor_type;location;lat;lon;timestamp;P1;durP1;ratioP1;P2;durP2;ratioP2
67008;SDS011;53922;52.080;4.748;2022-08-01T00:02:11;15.05;;;8.85;;
67008;SDS011;53922;52.080;4.748;2022-08-01T00:04:37;13.43;;;8.70;;
67008;SDS011;53922;52.080;4.748;2022-08-01T00:07:02;13.95;;;8.20;;
67008;SDS011;53922;52.080;4.748;2022-08-01T00:09:28;15.55;;;9.70;;
67008;SDS011;53922;52.080;4.748;2022-08-01T00:11:54;15.07;;;9.25;;
67008;SDS011;53922;52.080;4.748;2022-08-01T00:14:19;17.52;;;9.55;;
67008;SDS011;53922;52.080;4.748;2022-08-01T00:16:44;16.23;;;8.57;;
67008;SDS011;53922;52.080;4.748;2022-08-01T00:19:10;14.27;;;8.45;;
67008;SDS011;53922;52.080;4.748;2022-08-01T00:21:35;19.08;;;10.35;;
67008;SDS011;53922;52.080;4.748;2022-08-01T00:24:00;16.20;;;8.83;;
67008;SDS011;53922;52.080;4.748;2022-08-01T00:26:26;17.90;;;9.07;;
67008;SDS011;53922;52.080;4.748;2022-08-01T00:28:51;18.05;;;9.27;;
67008;SDS011;53922;52.080;4.748;2022-08-01T00:31:16;13.35;;;9.73;;
67008;SDS011;53922;52.080;4.748;2022-08-01T00:33:42;15.55;;;9.82;;
67008;SDS011;53922;52.080;4.748;2022-08-01T00:36:07;15.18;;;8.95;;
67008;SDS011;53922;52.080;4.748;2022-08-01T00:38:32;14.85;;;9.13;;
67008;SDS011;53922;52.080;4.748;2022-08-01T00:40:58;18.98;;;10.65;;
67008;SDS011;53922;52.080;4.748;2022-08-01T00:43:23;21.95;;;11.30;;
67008;SDS011;53922;52.080;4.748;2022-08-01T00:45:49;18.77;;;10.00;;
67008;SDS011;53922;52.080;4.748;2022-08-01T00:48:14;17.17;;;9.27;;
67008;SDS011;53922;52.080;4.748;2022-08-01T00:50:39;16.38;;;9.27;;
67008;SDS011;53922;52.080;4.748;2022-08-01T00:53:05;19.33;;;11.07;;
67008;SDS011;53922;52.080;4.748;2022-08-01T00:55:30;21.67;;;10.48;;
67008;SDS011;53922;52.080;4.748;2022-08-01T00:57:56;13.90;;;8.95;;
67008;SDS011;53922;52.080;4.748;2022-08-01T01:00:23;20.00;;;9.95;;
67008;SDS011;53922;52.080;4.748;2022-08-01T01:02:49;18.08;;;9.85;;
67008;SDS011;53922;52.080;4.748;2022-08-01T01:05:14;20.65;;;9.35;;
67008;SDS011;53922;52.080;4.748;2022-08-01T01:10:43;17.83;;;10.20;;
67008;SDS011;53922;52.080;4.748;2022-08-01T01:13:15;16.65;;;8.73;;
67008;SDS011;53922;52.080;4.748;2022-08-01T01:15:43;15.73;;;7.88;;
67008;SDS011;53922;52.080;4.748;2022-08-01T01:18:25;13.00;;;7.72;;
67008;SDS011;53922;52.080;4.748;2022-08-01T01:29:35;13.23;;;6.82;;
67008;SDS011;53922;52.080;4.748;2022-08-01T01:32:06;11.32;;;6.45;;
67008;SDS011;53922;52.080;4.748;2022-08-01T01:34:34;10.60;;;6.20;;
67008;SDS011;53922;52.080;4.748;2022-08-01T01:37:01;11.95;;;6.70;;
67008;SDS011;53922;52.080;4.748;2022-08-01T01:39:29;11.85;;;5.15;;
67008;SDS011;53922;52.080;4.748;2022-08-01T01:41:57;9.85;;;5.60;;
67008;SDS011;53922;52.080;4.748;2022-08-01T01:44:23;7.25;;;4.28;;
67008;SDS011;53922;52.080;4.748;2022-08-01T01:46:50;11.43;;;6.55;;
67008;SDS011;53922;52.080;4.748;2022-08-01T01:49:19;13.85;;;6.70;;
67008;SDS011;53922;52.080;4.748;2022-08-01T01:51:48;11.13;;;6.43;;
67008;SDS011;53922;52.080;4.748;2022-08-01T01:54:16;8.60;;;5.78;;
67008;SDS011;53922;52.080;4.748;2022-08-01T01:56:42;10.57;;;6.63;;
67008;SDS011;53922;52.080;4.748;2022-08-01T01:59:16;12.00;;;6.50;;
67008;SDS011;53922;52.080;4.748;2022-08-01T02:01:44;9.77;;;5.93;;
67008;SDS011;53922;52.080;4.748;2022-08-01T02:04:13;9.38;;;5.63;;
67008;SDS011;53922;52.080;4.748;2022-08-01T02:06:39;8.52;;;6.10;;
67008;SDS011;53922;52.080;4.748;2022-08-01T02:09:06;7.35;;;5.13;;
67008;SDS011;53922;52.080;4.748;2022-08-01T02:11:33;8.30;;;5.30;;
67008;SDS011;53922;52.080;4.748;2022-08-01T02:14:01;12.82;;;4.72;;
67008;SDS011;53922;52.080;4.748;2022-08-01T02:16:29;6.88;;;5.03;;
67008;SDS011;53922;52.080;4.748;2022-08-01T02:18:58;10.38;;;3.63;;
67008;SDS011;53922;52.080;4.748;2022-08-01T02:21:29;4.93;;;3.60;;
67008;SDS011;53922;52.080;4.748;2022-08-01T02:23:55;5.40;;;3.88;;
67008;SDS011;53922;52.080;4.748;2022-08-01T02:26:28;3.88;;;3.03;;
67008;SDS011;53922;52.080;4.748;2022-08-01T02:28:55;4.32;;;2.97;;
67008;SDS011;53922;52.080;4.748;2022-08-01T02:31:22;5.30;;;3.40;;
67008;SDS011;53922;52.080;4.748;2022-08-01T02:33:54;3.65;;;2.78;;
67008;SDS011;53922;52.080;4.748;2022-08-01T02:36:29;15.27;;;4.10;;
67008;SDS011;53922;52.080;4.748;2022-08-01T02:38:58;4.05;;;2.88;;
67008;SDS011;53922;52.080;4.748;2022-08-01T02:41:25;4.93;;;3.20;;
67008;SDS011;53922;52.080;4.748;2022-08-01T02:43:52;4.30;;;3.35;;
67008;SDS011;53922;52.080;4.748;2022-08-01T02:46:22;9.00;;;3.78;;
67008;SDS011;53922;52.080;4.748;2022-08-01T02:48:52;5.97;;;3.63;;
67008;SDS011;53922;52.080;4.748;2022-08-01T02:51:18;9.27;;;3.85;;
67008;SDS011;53922;52.080;4.748;2022-08-01T02:53:46;5.28;;;3.95;;
67008;SDS011;53922;52.080;4.748;2022-08-01T02:56:14;5.03;;;3.08;;
67008;SDS011;53922;52.080;4.748;2022-08-01T02:58:42;5.22;;;3.63;;
67008;SDS011;53922;52.080;4.748;2022-08-01T03:01:09;5.53;;;3.63;;
67008;SDS011;53922;52.080;4.748;2022-08-01T03:03:36;5.55;;;4.00;;
67008;SDS011;53922;52.080;4.748;2022-08-01T03:06:02;4.97;;;3.28;;
67008;SDS011;53922;52.080;4.748;2022-08-01T03:08:29;6.32;;;4.35;;
67008;SDS011;53922;52.080;4.748;2022-08-01T03:10:55;5.68;;;3.15;;
67008;SDS011;53922;52.080;4.748;2022-08-01T03:13:24;5.20;;;3.55;;
67008;SDS011;53922;52.080;4.748;2022-08-01T03:15:51;8.18;;;5.05;;
67008;SDS011;53922;52.080;4.748;2022-08-01T03:18:19;6.95;;;4.95;;
67008;SDS011;53922;52.080;4.748;2022-08-01T03:20:46;5.85;;;3.88;;
67008;SDS011;53922;52.080;4.748;2022-08-01T03:23:12;8.02;;;4.93;;
67008;SDS011;53922;52.080;4.748;2022-08-01T03:25:40;5.82;;;4.25;;
67008;SDS011;53922;52.080;4.748;2022-08-01T03:28:08;5.72;;;3.85;;
67008;SDS011;53922;52.080;4.748;2022-08-01T03:30:34;6.63;;;3.90;;
67008;SDS011;53922;52.080;4.748;2022-08-01T03:33:02;8.50;;;4.68;;
67008;SDS011;53922;52.080;4.748;2022-08-01T03:35:28;13.65;;;4.15;;
67008;SDS011;53922;52.080;4.748;2022-08-01T03:37:55;13.75;;;4.15;;
67008;SDS011;53922;52.080;4.748;2022-08-01T03:42:50;7.28;;;3.63;;
67008;SDS011;53922;52.080;4.748;2022-08-01T03:45:30;6.45;;;4.13;;
67008;SDS011;53922;52.080;4.748;2022-08-01T03:47:59;11.32;;;4.38;;
67008;SDS011;53922;52.080;4.748;2022-08-01T03:50:25;6.60;;;3.78;;
67008;SDS011;53922;52.080;4.748;2022-08-01T03:52:52;8.85;;;4.07;;
67008;SDS011;53922;52.080;4.748;2022-08-01T03:55:19;6.70;;;4.63;;
67008;SDS011;53922;52.080;4.748;2022-08-01T03:57:46;8.40;;;4.47;;
67008;SDS011;53922;52.080;4.748;2022-08-01T04:00:13;6.07;;;4.25;;
67008;SDS011;53922;52.080;4.748;2022-08-01T04:02:43;10.95;;;4.35;;
67008;SDS011;53922;52.080;4.748;2022-08-01T04:05:08;8.20;;;5.05;;
67008;SDS011;53922;52.080;4.748;2022-08-01T04:07:35;7.50;;;4.53;;
67008;SDS011;53922;52.080;4.748;2022-08-01T04:10:01;10.15;;;4.55;;
67008;SDS011;53922;52.080;4.748;2022-08-01T04:12:26;7.93;;;5.07;;
67008;SDS011;53922;52.080;4.748;2022-08-01T04:14:52;7.05;;;4.85;;
67008;SDS011;53922;52.080;4.748;2022-08-01T04:17:17;10.35;;;5.07;;
67008;SDS011;53922;52.080;4.748;2022-08-01T04:19:43;8.90;;;4.80;;
67008;SDS011;53922;52.080;4.748;2022-08-01T04:22:10;8.82;;;4.68;;
67008;SDS011;53922;52.080;4.748;2022-08-01T04:24:37;5.90;;;4.25;;
67008;SDS011;53922;52.080;4.748;2022-08-01T04:27:05;9.98;;;4.10;;
67008;SDS011;53922;52.080;4.748;2022-08-01T04:29:34;7.28;;;4.53;;
67008;SDS011;53922;52.080;4.748;2022-08-01T04:32:02;7.50;;;4.80;;
67008;SDS011;53922;52.080;4.748;2022-08-01T04:34:28;6.95;;;4.43;;
67008;SDS011;53922;52.080;4.748;2022-08-01T04:36:57;5.60;;;3.85;;
67008;SDS011;53922;52.080;4.748;2022-08-01T04:39:23;7.53;;;5.07;;
67008;SDS011;53922;52.080;4.748;2022-08-01T04:41:52;6.63;;;4.68;;
67008;SDS011;53922;52.080;4.748;2022-08-01T04:44:21;9.32;;;4.75;;
67008;SDS011;53922;52.080;4.748;2022-08-01T04:46:46;5.82;;;4.05;;
67008;SDS011;53922;52.080;4.748;2022-08-01T04:49:13;9.93;;;4.65;;
67008;SDS011;53922;52.080;4.748;2022-08-01T04:51:53;6.80;;;4.38;;
67008;SDS011;53922;52.080;4.748;2022-08-01T04:56:51;5.90;;;3.95;;
67008;SDS011;53922;52.080;4.748;2022-08-01T04:59:19;7.65;;;3.83;;
67008;SDS011;53922;52.080;4.748;2022-08-01T05:02:03;10.20;;;4.05;;
67008;SDS011;53922;52.080;4.748;2022-08-01T05:04:28;5.43;;;3.53;;
67008;SDS011;53922;52.080;4.748;2022-08-01T05:06:54;9.05;;;4.88;;
67008;SDS011;53922;52.080;4.748;2022-08-01T05:09:19;5.45;;;4.68;;
67008;SDS011;53922;52.080;4.748;2022-08-01T05:11:45;5.70;;;3.88;;
67008;SDS011;53922;52.080;4.748;2022-08-01T05:14:10;7.43;;;4.35;;
67008;SDS011;53922;52.080;4.748;2022-08-01T05:16:36;6.88;;;4.78;;
67008;SDS011;53922;52.080;4.748;2022-08-01T05:19:01;7.80;;;4.90;;
67008;SDS011;53922;52.080;4.748;2022-08-01T05:21:27;7.97;;;4.88;;
67008;SDS011;53922;52.080;4.748;2022-08-01T05:23:52;7.53;;;4.20;;
67008;SDS011;53922;52.080;4.748;2022-08-01T05:26:18;7.32;;;5.18;;
67008;SDS011;53922;52.080;4.748;2022-08-01T05:28:43;15.23;;;4.78;;
67008;SDS011;53922;52.080;4.748;2022-08-01T05:31:08;8.20;;;4.85;;
67008;SDS011;53922;52.080;4.748;2022-08-01T05:33:34;8.57;;;5.47;;
67008;SDS011;53922;52.080;4.748;2022-08-01T05:35:59;6.57;;;4.97;;
67008;SDS011;53922;52.080;4.748;2022-08-01T05:38:24;9.32;;;5.00;;
67008;SDS011;53922;52.080;4.748;2022-08-01T05:40:50;5.35;;;3.88;;
67008;SDS011;53922;52.080;4.748;2022-08-01T05:43:15;6.18;;;4.43;;
67008;SDS011;53922;52.080;4.748;2022-08-01T05:45:41;7.88;;;5.13;;
67008;SDS011;53922;52.080;4.748;2022-08-01T05:48:06;7.57;;;5.22;;
67008;SDS011;53922;52.080;4.748;2022-08-01T05:50:32;7.15;;;3.92;;
67008;SDS011;53922;52.080;4.748;2022-08-01T05:52:57;6.15;;;4.47;;
67008;SDS011;53922;52.080;4.748;2022-08-01T05:55:23;9.00;;;4.68;;
67008;SDS011;53922;52.080;4.748;2022-08-01T05:57:48;7.28;;;5.22;;
67008;SDS011;53922;52.080;4.748;2022-08-01T06:00:13;5.93;;;4.47;;
67008;SDS011;53922;52.080;4.748;2022-08-01T06:02:40;6.30;;;4.65;;
67008;SDS011;53922;52.080;4.748;2022-08-01T06:05:09;7.90;;;5.45;;
67008;SDS011;53922;52.080;4.748;2022-08-01T06:07:35;6.43;;;4.78;;
67008;SDS011;53922;52.080;4.748;2022-08-01T06:10:01;6.03;;;4.50;;
67008;SDS011;53922;52.080;4.748;2022-08-01T06:12:26;5.50;;;3.85;;
67008;SDS011;53922;52.080;4.748;2022-08-01T06:14:51;6.68;;;4.32;;
67008;SDS011;53922;52.080;4.748;2022-08-01T06:17:17;8.88;;;5.88;;
67008;SDS011;53922;52.080;4.748;2022-08-01T06:19:42;5.00;;;4.10;;
67008;SDS011;53922;52.080;4.748;2022-08-01T06:22:07;6.83;;;4.73;;
67008;SDS011;53922;52.080;4.748;2022-08-01T06:24:32;10.38;;;6.32;;
67008;SDS011;53922;52.080;4.748;2022-08-01T06:26:58;12.10;;;6.28;;
67008;SDS011;53922;52.080;4.748;2022-08-01T06:29:23;9.73;;;6.75;;
67008;SDS011;53922;52.080;4.748;2022-08-01T06:31:49;7.97;;;4.85;;
67008;SDS011;53922;52.080;4.748;2022-08-01T06:34:14;10.85;;;6.90;;
67008;SDS011;53922;52.080;4.748;2022-08-01T06:36:40;11.23;;;6.50;;
67008;SDS011;53922;52.080;4.748;2022-08-01T06:39:06;7.78;;;5.22;;
67008;SDS011;53922;52.080;4.748;2022-08-01T06:41:31;17.88;;;5.65;;
67008;SDS011;53922;52.080;4.748;2022-08-01T06:43:57;13.38;;;4.57;;
67008;SDS011;53922;52.080;4.748;2022-08-01T06:46:22;12.45;;;5.47;;
67008;SDS011;53922;52.080;4.748;2022-08-01T06:48:48;8.32;;;3.88;;
67008;SDS011;53922;52.080;4.748;2022-08-01T06:51:13;19.42;;;5.28;;
67008;SDS011;53922;52.080;4.748;2022-08-01T06:53:41;7.53;;;4.57;;
67008;SDS011;53922;52.080;4.748;2022-08-01T06:56:07;14.70;;;4.63;;
67008;SDS011;53922;52.080;4.748;2022-08-01T06:58:33;15.10;;;5.80;;
67008;SDS011;53922;52.080;4.748;2022-08-01T07:00:59;16.83;;;4.60;;
67008;SDS011;53922;52.080;4.748;2022-08-01T07:03:25;12.10;;;4.75;;
67008;SDS011;53922;52.080;4.748;2022-08-01T07:05:50;7.60;;;3.65;;
67008;SDS011;53922;52.080;4.748;2022-08-01T07:08:16;11.30;;;4.13;;
67008;SDS011;53922;52.080;4.748;2022-08-01T07:10:41;11.10;;;3.87;;
67008;SDS011;53922;52.080;4.748;2022-08-01T07:13:06;16.20;;;5.85;;
67008;SDS011;53922;52.080;4.748;2022-08-01T07:15:31;14.32;;;4.72;;
67008;SDS011;53922;52.080;4.748;2022-08-01T07:17:57;7.70;;;4.20;;
67008;SDS011;53922;52.080;4.748;2022-08-01T07:20:23;13.50;;;4.38;;
67008;SDS011;53922;52.080;4.748;2022-08-01T07:22:49;13.77;;;4.67;;
67008;SDS011;53922;52.080;4.748;2022-08-01T07:25:14;10.32;;;4.40;;
67008;SDS011;53922;52.080;4.748;2022-08-01T07:27:40;22.95;;;4.82;;
67008;SDS011;53922;52.080;4.748;2022-08-01T07:30:05;13.20;;;3.75;;
67008;SDS011;53922;52.080;4.748;2022-08-01T07:32:31;16.98;;;4.47;;
67008;SDS011;53922;52.080;4.748;2022-08-01T07:34:57;9.52;;;3.97;;
67008;SDS011;53922;52.080;4.748;2022-08-01T07:37:22;25.05;;;4.60;;
67008;SDS011;53922;52.080;4.748;2022-08-01T07:39:48;7.90;;;3.13;;
67008;SDS011;53922;52.080;4.748;2022-08-01T07:42:14;9.10;;;3.30;;
67008;SDS011;53922;52.080;4.748;2022-08-01T07:44:39;14.52;;;4.32;;
67008;SDS011;53922;52.080;4.748;2022-08-01T07:47:05;10.10;;;3.53;;
67008;SDS011;53922;52.080;4.748;2022-08-01T07:49:30;4.15;;;3.25;;
67008;SDS011;53922;52.080;4.748;2022-08-01T07:51:56;26.75;;;4.40;;
67008;SDS011;53922;52.080;4.748;2022-08-01T07:54:21;9.43;;;3.28;;
67008;SDS011;53922;52.080;4.748;2022-08-01T07:56:49;8.77;;;3.15;;
67008;SDS011;53922;52.080;4.748;2022-08-01T07:59:14;7.80;;;3.47;;
67008;SDS011;53922;52.080;4.748;2022-08-01T08:01:39;9.43;;;2.77;;
67008;SDS011;53922;52.080;4.748;2022-08-01T08:04:04;9.13;;;2.65;;
67008;SDS011;53922;52.080;4.748;2022-08-01T08:06:30;12.10;;;3.45;;
67008;SDS011;53922;52.080;4.748;2022-08-01T08:08:55;5.90;;;2.30;;
67008;SDS011;53922;52.080;4.748;2022-08-01T08:11:20;8.18;;;2.65;;
67008;SDS011;53922;52.080;4.748;2022-08-01T08:13:46;14.25;;;2.78;;
67008;SDS011;53922;52.080;4.748;2022-08-01T08:16:11;6.38;;;2.63;;
67008;SDS011;53922;52.080;4.748;2022-08-01T08:18:36;9.98;;;2.60;;
67008;SDS011;53922;52.080;4.748;2022-08-01T08:21:03;7.63;;;2.72;;
67008;SDS011;53922;52.080;4.748;2022-08-01T08:23:28;13.40;;;2.83;;
67008;SDS011;53922;52.080;4.748;2022-08-01T08:26:12;10.10;;;2.85;;
67008;SDS011;53922;52.080;4.748;2022-08-01T08:28:37;11.20;;;2.83;;
67008;SDS011;53922;52.080;4.748;2022-08-01T08:31:02;16.58;;;4.05;;
67008;SDS011;53922;52.080;4.748;2022-08-01T08:33:28;9.40;;;3.15;;
67008;SDS011;53922;52.080;4.748;2022-08-01T08:35:53;6.95;;;2.45;;
67008;SDS011;53922;52.080;4.748;2022-08-01T08:38:19;11.60;;;2.67;;
67008;SDS011;53922;52.080;4.748;2022-08-01T08:40:45;14.10;;;3.17;;
67008;SDS011;53922;52.080;4.748;2022-08-01T08:43:11;10.10;;;3.35;;
67008;SDS011;53922;52.080;4.748;2022-08-01T08:45:37;10.82;;;3.92;;
67008;SDS011;53922;52.080;4.748;2022-08-01T08:48:02;5.38;;;2.15;;
67008;SDS011;53922;52.080;4.748;2022-08-01T08:50:31;6.68;;;2.55;;
67008;SDS011;53922;52.080;4.748;2022-08-01T08:52:57;10.25;;;2.97;;
67008;SDS011;53922;52.080;4.748;2022-08-01T08:55:25;9.07;;;1.30;;
67008;SDS011;53922;52.080;4.748;2022-08-01T08:57:52;4.50;;;2.28;;
67008;SDS011;53922;52.080;4.748;2022-08-01T09:00:19;7.60;;;3.08;;
67008;SDS011;53922;52.080;4.748;2022-08-01T09:02:45;6.53;;;2.42;;
67008;SDS011;53922;52.080;4.748;2022-08-01T09:05:13;2.78;;;1.42;;
67008;SDS011;53922;52.080;4.748;2022-08-01T09:07:39;10.80;;;2.73;;
67008;SDS011;53922;52.080;4.748;2022-08-01T09:10:04;9.18;;;2.50;;
67008;SDS011;53922;52.080;4.748;2022-08-01T09:12:31;11.07;;;2.00;;
67008;SDS011;53922;52.080;4.748;2022-08-01T09:14:56;10.20;;;2.97;;
67008;SDS011;53922;52.080;4.748;2022-08-01T09:17:21;8.10;;;2.58;;
67008;SDS011;53922;52.080;4.748;2022-08-01T09:19:48;4.40;;;2.13;;
67008;SDS011;53922;52.080;4.748;2022-08-01T09:22:20;8.15;;;2.33;;
67008;SDS011;53922;52.080;4.748;2022-08-01T09:27:29;11.95;;;3.45;;
67008;SDS011;53922;52.080;4.748;2022-08-01T09:30:05;9.50;;;2.85;;
67008;SDS011;53922;52.080;4.748;2022-08-01T09:32:36;3.88;;;1.95;;
67008;SDS011;53922;52.080;4.748;2022-08-01T09:35:26;6.75;;;2.42;;
67008;SDS011;53922;52.080;4.748;2022-08-01T09:40:52;5.30;;;1.70;;
67008;SDS011;53922;52.080;4.748;2022-08-01T09:43:19;9.32;;;2.47;;
67008;SDS011;53922;52.080;4.748;2022-08-01T09:45:46;7.93;;;2.72;;
67008;SDS011;53922;52.080;4.748;2022-08-01T09:48:12;9.13;;;2.22;;
67008;SDS011;53922;52.080;4.748;2022-08-01T09:50:44;5.18;;;2.45;;
67008;SDS011;53922;52.080;4.748;2022-08-01T09:53:14;6.30;;;2.30;;
67008;SDS011;53922;52.080;4.748;2022-08-01T09:55:40;3.88;;;2.25;;
67008;SDS011;53922;52.080;4.748;2022-08-01T09:58:06;3.72;;;2.35;;
67008;SDS011;53922;52.080;4.748;2022-08-01T10:00:33;12.82;;;3.05;;
67008;SDS011;53922;52.080;4.748;2022-08-01T10:03:00;14.27;;;3.42;;
67008;SDS011;53922;52.080;4.748;2022-08-01T10:05:44;9.00;;;2.33;;
67008;SDS011;53922;52.080;4.748;2022-08-01T10:08:09;7.95;;;2.13;;
67008;SDS011;53922;52.080;4.748;2022-08-01T10:10:37;7.63;;;2.70;;
67008;SDS011;53922;52.080;4.748;2022-08-01T10:13:02;8.07;;;2.83;;
67008;SDS011;53922;52.080;4.748;2022-08-01T10:15:29;6.30;;;2.13;;
67008;SDS011;53922;52.080;4.748;2022-08-01T10:17:56;11.77;;;2.67;;
67008;SDS011;53922;52.080;4.748;2022-08-01T10:20:24;9.90;;;3.42;;
67008;SDS011;53922;52.080;4.748;2022-08-01T10:22:52;14.93;;;3.50;;
67008;SDS011;53922;52.080;4.748;2022-08-01T10:25:19;14.00;;;2.97;;
67008;SDS011;53922;52.080;4.748;2022-08-01T10:27:47;8.40;;;2.70;;
67008;SDS011;53922;52.080;4.748;2022-08-01T10:30:14;7.15;;;2.53;;
67008;SDS011;53922;52.080;4.748;2022-08-01T10:32:40;9.57;;;2.60;;
67008;SDS011;53922;52.080;4.748;2022-08-01T10:35:07;9.73;;;2.42;;
67008;SDS011;53922;52.080;4.748;2022-08-01T10:37:34;5.10;;;2.15;;
67008;SDS011;53922;52.080;4.748;2022-08-01T10:40:00;8.20;;;2.42;;
67008;SDS011;53922;52.080;4.748;2022-08-01T10:42:25;9.07;;;3.00;;
67008;SDS011;53922;52.080;4.748;2022-08-01T10:44:52;7.40;;;2.92;;
67008;SDS011;53922;52.080;4.748;2022-08-01T10:47:21;12.50;;;2.85;;
67008;SDS011;53922;52.080;4.748;2022-08-01T10:49:56;11.98;;;3.17;;
67008;SDS011;53922;52.080;4.748;2022-08-01T10:52:27;17.27;;;3.97;;
67008;SDS011;53922;52.080;4.748;2022-08-01T10:55:05;9.80;;;2.50;;
67008;SDS011;53922;52.080;4.748;2022-08-01T10:57:41;9.65;;;2.83;;
67008;SDS011;53922;52.080;4.748;2022-08-01T11:00:07;7.18;;;2.80;;
67008;SDS011;53922;52.080;4.748;2022-08-01T11:02:33;5.00;;;2.22;;
67008;SDS011;53922;52.080;4.748;2022-08-01T11:05:03;5.93;;;2.42;;
67008;SDS011;53922;52.080;4.748;2022-08-01T11:07:38;7.70;;;2.95;;
67008;SDS011;53922;52.080;4.748;2022-08-01T11:10:10;5.70;;;2.60;;
67008;SDS011;53922;52.080;4.748;2022-08-01T11:12:40;5.80;;;2.38;;
67008;SDS011;53922;52.080;4.748;2022-08-01T11:22:29;10.57;;;3.83;;
67008;SDS011;53922;52.080;4.748;2022-08-01T11:24:55;6.60;;;2.83;;
67008;SDS011;53922;52.080;4.748;2022-08-01T11:27:28;6.80;;;2.22;;
67008;SDS011;53922;52.080;4.748;2022-08-01T11:30:21;11.13;;;3.85;;
67008;SDS011;53922;52.080;4.748;2022-08-01T11:32:51;9.00;;;2.92;;
67008;SDS011;53922;52.080;4.748;2022-08-01T11:35:19;7.85;;;2.67;;
67008;SDS011;53922;52.080;4.748;2022-08-01T11:37:54;7.10;;;3.30;;
67008;SDS011;53922;52.080;4.748;2022-08-01T11:40:24;7.53;;;2.95;;
67008;SDS011;53922;52.080;4.748;2022-08-01T11:45:48;12.35;;;2.15;;
67008;SDS011;53922;52.080;4.748;2022-08-01T11:48:25;4.45;;;2.10;;
67008;SDS011;53922;52.080;4.748;2022-08-01T11:50:51;10.10;;;3.00;;
67008;SDS011;53922;52.080;4.748;2022-08-01T11:53:18;8.93;;;2.78;;
67008;SDS011;53922;52.080;4.748;2022-08-01T11:55:48;7.78;;;2.60;;
67008;SDS011;53922;52.080;4.748;2022-08-01T11:58:15;8.10;;;2.05;;
67008;SDS011;53922;52.080;4.748;2022-08-01T12:00:49;9.77;;;2.83;;
67008;SDS011;53922;52.080;4.748;2022-08-01T12:03:30;10.73;;;2.72;;
67008;SDS011;53922;52.080;4.748;2022-08-01T12:05:57;8.43;;;2.67;;
67008;SDS011;53922;52.080;4.748;2022-08-01T12:08:33;9.07;;;2.08;;
67008;SDS011;53922;52.080;4.748;2022-08-01T12:11:00;12.15;;;3.10;;
67008;SDS011;53922;52.080;4.748;2022-08-01T12:13:26;4.30;;;2.15;;
67008;SDS011;53922;52.080;4.748;2022-08-01T12:15:52;4.07;;;1.83;;
67008;SDS011;53922;52.080;4.748;2022-08-01T12:18:17;9.30;;;2.67;;
67008;SDS011;53922;52.080;4.748;2022-08-01T12:20:43;8.48;;;2.28;;
67008;SDS011;53922;52.080;4.748;2022-08-01T12:23:11;7.40;;;2.63;;
67008;SDS011;53922;52.080;4.748;2022-08-01T12:25:39;4.65;;;1.50;;
67008;SDS011;53922;52.080;4.748;2022-08-01T12:28:06;5.93;;;2.03;;
67008;SDS011;53922;52.080;4.748;2022-08-01T12:30:33;5.28;;;1.67;;
67008;SDS011;53922;52.080;4.748;2022-08-01T12:33:02;4.85;;;2.35;;
67008;SDS011;53922;52.080;4.748;2022-08-01T12:35:29;12.15;;;1.85;;
67008;SDS011;53922;52.080;4.748;2022-08-01T12:37:57;3.88;;;2.20;;
67008;SDS011;53922;52.080;4.748;2022-08-01T12:40:26;6.20;;;1.98;;
67008;SDS011;53922;52.080;4.748;2022-08-01T12:42:55;5.40;;;2.13;;
67008;SDS011;53922;52.080;4.748;2022-08-01T12:45:23;4.57;;;1.50;;
67008;SDS011;53922;52.080;4.748;2022-08-01T12:47:52;7.15;;;2.30;;
67008;SDS011;53922;52.080;4.748;2022-08-01T12:50:19;3.72;;;1.73;;
67008;SDS011;53922;52.080;4.748;2022-08-01T12:52:46;5.18;;;1.67;;
67008;SDS011;53922;52.080;4.748;2022-08-01T12:55:15;5.70;;;2.25;;
67008;SDS011;53922;52.080;4.748;2022-08-01T12:57:46;4.20;;;1.83;;
67008;SDS011;53922;52.080;4.748;2022-08-01T13:00:27;13.55;;;2.35;;
67008;SDS011;53922;52.080;4.748;2022-08-01T13:05:49;6.20;;;2.05;;
67008;SDS011;53922;52.080;4.748;2022-08-01T13:08:20;8.18;;;2.65;;
67008;SDS011;53922;52.080;4.748;2022-08-01T13:10:47;3.58;;;1.50;;
67008;SDS011;53922;52.080;4.748;2022-08-01T13:13:13;5.13;;;2.25;;
67008;SDS011;53922;52.080;4.748;2022-08-01T13:15:41;3.47;;;2.33;;
67008;SDS011;53922;52.080;4.748;2022-08-01T13:18:27;12.55;;;2.80;;
67008;SDS011;53922;52.080;4.748;2022-08-01T13:29:06;6.75;;;2.78;;
67008;SDS011;53922;52.080;4.748;2022-08-01T13:31:33;3.95;;;2.05;;
67008;SDS011;53922;52.080;4.748;2022-08-01T13:33:59;9.00;;;2.10;;
67008;SDS011;53922;52.080;4.748;2022-08-01T13:36:24;7.60;;;1.92;;
67008;SDS011;53922;52.080;4.748;2022-08-01T13:38:52;6.85;;;2.22;;
67008;SDS011;53922;52.080;4.748;2022-08-01T13:41:36;2.28;;;1.52;;
67008;SDS011;53922;52.080;4.748;2022-08-01T13:44:01;7.03;;;1.70;;
67008;SDS011;53922;52.080;4.748;2022-08-01T13:46:26;5.32;;;2.22;;
67008;SDS011;53922;52.080;4.748;2022-08-01T13:48:52;6.20;;;1.70;;
67008;SDS011;53922;52.080;4.748;2022-08-01T13:51:17;8.65;;;2.65;;
67008;SDS011;53922;52.080;4.748;2022-08-01T13:53:42;5.72;;;1.90;;
67008;SDS011;53922;52.080;4.748;2022-08-01T13:56:07;15.27;;;3.40;;
67008;SDS011;53922;52.080;4.748;2022-08-01T13:58:33;5.68;;;1.80;;
67008;SDS011;53922;52.080;4.748;2022-08-01T14:00:58;4.45;;;2.00;;
67008;SDS011;53922;52.080;4.748;2022-08-01T14:03:24;8.93;;;2.00;;
67008;SDS011;53922;52.080;4.748;2022-08-01T14:05:49;6.72;;;2.20;;
67008;SDS011;53922;52.080;4.748;2022-08-01T14:08:14;3.45;;;1.83;;
67008;SDS011;53922;52.080;4.748;2022-08-01T14:10:40;8.63;;;2.70;;
67008;SDS011;53922;52.080;4.748;2022-08-01T14:13:05;4.57;;;1.90;;
67008;SDS011;53922;52.080;4.748;2022-08-01T14:15:30;6.05;;;2.42;;
67008;SDS011;53922;52.080;4.748;2022-08-01T14:17:57;7.13;;;3.05;;
67008;SDS011;53922;52.080;4.748;2022-08-01T14:20:22;6.75;;;2.33;;
67008;SDS011;53922;52.080;4.748;2022-08-01T14:22:48;7.20;;;2.55;;
67008;SDS011;53922;52.080;4.748;2022-08-01T14:25:14;6.43;;;2.35;;
67008;SDS011;53922;52.080;4.748;2022-08-01T14:27:39;4.60;;;1.65;;
67008;SDS011;53922;52.080;4.748;2022-08-01T14:30:06;8.45;;;2.58;;
67008;SDS011;53922;52.080;4.748;2022-08-01T14:32:32;17.55;;;3.60;;
67008;SDS011;53922;52.080;4.748;2022-08-01T14:34:58;4.28;;;1.70;;
67008;SDS011;53922;52.080;4.748;2022-08-01T14:37:24;6.65;;;2.47;;
67008;SDS011;53922;52.080;4.748;2022-08-01T14:39:49;3.83;;;1.40;;
67008;SDS011;53922;52.080;4.748;2022-08-01T14:42:14;6.72;;;2.63;;
67008;SDS011;53922;52.080;4.748;2022-08-01T14:44:40;9.00;;;2.58;;
67008;SDS011;53922;52.080;4.748;2022-08-01T14:47:05;6.65;;;2.60;;
67008;SDS011;53922;52.080;4.748;2022-08-01T14:49:30;9.73;;;2.67;;
67008;SDS011;53922;52.080;4.748;2022-08-01T14:51:56;11.00;;;2.08;;
67008;SDS011;53922;52.080;4.748;2022-08-01T14:54:21;5.57;;;2.28;;
67008;SDS011;53922;52.080;4.748;2022-08-01T14:56:46;4.23;;;2.00;;
67008;SDS011;53922;52.080;4.748;2022-08-01T14:59:11;2.42;;;1.77;;
67008;SDS011;53922;52.080;4.748;2022-08-01T15:01:37;3.33;;;1.95;;
67008;SDS011;53922;52.080;4.748;2022-08-01T15:04:02;7.97;;;1.90;;
67008;SDS011;53922;52.080;4.748;2022-08-01T15:06:27;5.43;;;2.97;;
67008;SDS011;53922;52.080;4.748;2022-08-01T15:08:53;6.82;;;2.83;;
67008;SDS011;53922;52.080;4.748;2022-08-01T15:11:18;10.02;;;3.13;;
67008;SDS011;53922;52.080;4.748;2022-08-01T15:13:43;8.13;;;2.35;;
67008;SDS011;53922;52.080;4.748;2022-08-01T15:16:09;3.28;;;2.30;;
67008;SDS011;53922;52.080;4.748;2022-08-01T15:18:35;4.32;;;2.55;;
67008;SDS011;53922;52.080;4.748;2022-08-01T15:21:00;2.13;;;1.42;;
67008;SDS011;53922;52.080;4.748;2022-08-01T15:23:26;4.53;;;1.85;;
67008;SDS011;53922;52.080;4.748;2022-08-01T15:25:51;4.93;;;1.58;;
67008;SDS011;53922;52.080;4.748;2022-08-01T15:28:17;6.82;;;1.95;;